sensor_id;sensor_type;location;lat;lon;timestamp;P1;durP1;ratioP1;P2;durP2;ratioP2
5951;SDS011;3001;42.622;23.194;2022-11-22T00:00:58;2.13;;;2.03;;
5951;SDS011;3001;42.622;23.194;2022-11-22T00:03:24;3.40;;;2.87;;
5951;SDS011;3001;42.622;23.194;2022-11-22T00:05:51;4.73;;;3.20;;
5951;SDS011;3001;42.622;23.194;2022-11-22T00:08:18;8.60;;;5.27;;
5951;SDS011;3001;42.622;23.194;2022-11-22T00:10:47;7.20;;;3.20;;
5951;SDS011;3001;42.622;23.194;2022-11-22T00:13:14;2.33;;;2.23;;
5951;SDS011;3001;42.622;23.194;2022-11-22T00:15:41;3.10;;;2.73;;
5951;SDS011;3001;42.622;23.194;2022-11-22T00:18:10;2.23;;;2.10;;
5951;SDS011;3001;42.622;23.194;2022-11-22T00:20:37;5.30;;;2.27;;
5951;SDS011;3001;42.622;23.194;2022-11-22T00:23:04;3.03;;;2.47;;
5951;SDS011;3001;42.622;23.194;2022-11-22T00:25:30;2.70;;;2.60;;
5951;SDS011;3001;42.622;23.194;2022-11-22T00:27:58;2.70;;;2.20;;
5951;SDS011;3001;42.622;23.194;2022-11-22T00:30:25;2.70;;;2.60;;
5951;SDS011;3001;42.622;23.194;2022-11-22T00:32:52;3.30;;;2.13;;
5951;SDS011;3001;42.622;23.194;2022-11-22T00:35:19;4.93;;;2.57;;
5951;SDS011;3001;42.622;23.194;2022-11-22T00:37:45;2.63;;;2.33;;
5951;SDS011;3001;42.622;23.194;2022-11-22T00:40:12;2.53;;;2.33;;
5951;SDS011;3001;42.622;23.194;2022-11-22T00:42:39;2.23;;;2.10;;
5951;SDS011;3001;42.622;23.194;2022-11-22T00:45:08;2.57;;;2.37;;
5951;SDS011;3001;42.622;23.194;2022-11-22T00:47:35;2.50;;;2.40;;
5951;SDS011;3001;42.622;23.194;2022-11-22T00:50:02;2.80;;;2.60;;
5951;SDS011;3001;42.622;23.194;2022-11-22T00:52:29;3.43;;;2.37;;
5951;SDS011;3001;42.622;23.194;2022-11-22T00:54:56;3.13;;;2.57;;
5951;SDS011;3001;42.622;23.194;2022-11-22T00:57:22;4.10;;;2.50;;
5951;SDS011;3001;42.622;23.194;2022-11-22T00:59:49;2.90;;;2.70;;
5951;SDS011;3001;42.622;23.194;2022-11-22T01:02:17;4.70;;;2.87;;
5951;SDS011;3001;42.622;23.194;2022-11-22T01:04:44;2.80;;;2.60;;
5951;SDS011;3001;42.622;23.194;2022-11-22T01:07:11;3.20;;;2.90;;
5951;SDS011;3001;42.622;23.194;2022-11-22T01:09:38;3.87;;;3.57;;
5951;SDS011;3001;42.622;23.194;2022-11-22T01:12:04;3.60;;;3.30;;
5951;SDS011;3001;42.622;23.194;2022-11-22T01:14:32;5.83;;;3.43;;
5951;SDS011;3001;42.622;23.194;2022-11-22T01:16:58;3.90;;;3.60;;
5951;SDS011;3001;42.622;23.194;2022-11-22T01:19:27;2.80;;;2.63;;
5951;SDS011;3001;42.622;23.194;2022-11-22T01:21:53;3.47;;;3.27;;
5951;SDS011;3001;42.622;23.194;2022-11-22T01:24:20;3.20;;;2.90;;
5951;SDS011;3001;42.622;23.194;2022-11-22T01:26:47;3.07;;;2.57;;
5951;SDS011;3001;42.622;23.194;2022-11-22T01:29:14;2.90;;;2.60;;
5951;SDS011;3001;42.622;23.194;2022-11-22T01:31:40;3.47;;;3.27;;
5951;SDS011;3001;42.622;23.194;2022-11-22T01:34:07;4.43;;;2.77;;
5951;SDS011;3001;42.622;23.194;2022-11-22T01:36:35;3.27;;;3.00;;
5951;SDS011;3001;42.622;23.194;2022-11-22T01:39:02;4.17;;;3.77;;
5951;SDS011;3001;42.622;23.194;2022-11-22T01:41:29;4.60;;;4.30;;
5951;SDS011;3001;42.622;23.194;2022-11-22T01:43:56;3.40;;;3.10;;
5951;SDS011;3001;42.622;23.194;2022-11-22T01:46:26;3.90;;;3.60;;
5951;SDS011;3001;42.622;23.194;2022-11-22T01:48:58;3.20;;;3.00;;
5951;SDS011;3001;42.622;23.194;2022-11-22T01:51:31;4.27;;;3.40;;
5951;SDS011;3001;42.622;23.194;2022-11-22T01:54:05;3.57;;;3.10;;
5951;SDS011;3001;42.622;23.194;2022-11-22T01:56:35;3.23;;;2.80;;
5951;SDS011;3001;42.622;23.194;2022-11-22T01:59:04;2.50;;;2.40;;
5951;SDS011;3001;42.622;23.194;2022-11-22T02:01:35;3.73;;;3.43;;
5951;SDS011;3001;42.622;23.194;2022-11-22T02:04:03;4.43;;;3.90;;
5951;SDS011;3001;42.622;23.194;2022-11-22T02:06:33;4.23;;;3.93;;
5951;SDS011;3001;42.622;23.194;2022-11-22T02:09:06;4.00;;;3.70;;
5951;SDS011;3001;42.622;23.194;2022-11-22T02:11:37;3.33;;;3.13;;
5951;SDS011;3001;42.622;23.194;2022-11-22T02:14:08;3.40;;;3.13;;
5951;SDS011;3001;42.622;23.194;2022-11-22T02:16:37;3.43;;;3.13;;
5951;SDS011;3001;42.622;23.194;2022-11-22T02:19:05;3.07;;;2.87;;
5951;SDS011;3001;42.622;23.194;2022-11-22T02:21:49;3.40;;;3.20;;
5951;SDS011;3001;42.622;23.194;2022-11-22T02:24:28;3.13;;;2.93;;
5951;SDS011;3001;42.622;23.194;2022-11-22T02:27:02;2.90;;;2.70;;
5951;SDS011;3001;42.622;23.194;2022-11-22T02:29:30;3.40;;;3.20;;
5951;SDS011;3001;42.622;23.194;2022-11-22T02:31:57;3.63;;;3.33;;
5951;SDS011;3001;42.622;23.194;2022-11-22T02:34:24;3.60;;;3.40;;
5951;SDS011;3001;42.622;23.194;2022-11-22T02:36:51;3.13;;;2.93;;
5951;SDS011;3001;42.622;23.194;2022-11-22T02:39:20;3.50;;;3.23;;
5951;SDS011;3001;42.622;23.194;2022-11-22T02:41:51;3.10;;;2.90;;
5951;SDS011;3001;42.622;23.194;2022-11-22T02:44:22;3.47;;;3.27;;
5951;SDS011;3001;42.622;23.194;2022-11-22T02:46:51;3.50;;;3.30;;
5951;SDS011;3001;42.622;23.194;2022-11-22T02:49:19;3.83;;;3.00;;
5951;SDS011;3001;42.622;23.194;2022-11-22T02:51:48;3.20;;;3.00;;
5951;SDS011;3001;42.622;23.194;2022-11-22T02:54:15;3.37;;;3.13;;
5951;SDS011;3001;42.622;23.194;2022-11-22T02:56:42;3.17;;;2.97;;
5951;SDS011;3001;42.622;23.194;2022-11-22T02:59:09;3.97;;;3.67;;
5951;SDS011;3001;42.622;23.194;2022-11-22T03:01:38;4.00;;;3.70;;
5951;SDS011;3001;42.622;23.194;2022-11-22T03:04:05;4.13;;;3.83;;
5951;SDS011;3001;42.622;23.194;2022-11-22T03:06:33;3.90;;;3.60;;
5951;SDS011;3001;42.622;23.194;2022-11-22T03:09:00;3.43;;;3.23;;
5951;SDS011;3001;42.622;23.194;2022-11-22T03:11:27;3.43;;;3.20;;
5951;SDS011;3001;42.622;23.194;2022-11-22T03:13:53;4.80;;;4.40;;
5951;SDS011;3001;42.622;23.194;2022-11-22T03:16:20;5.73;;;4.77;;
5951;SDS011;3001;42.622;23.194;2022-11-22T03:18:48;5.53;;;4.83;;
5951;SDS011;3001;42.622;23.194;2022-11-22T03:21:15;3.47;;;3.27;;
5951;SDS011;3001;42.622;23.194;2022-11-22T03:23:42;5.53;;;5.13;;
5951;SDS011;3001;42.622;23.194;2022-11-22T03:26:09;4.90;;;4.37;;
5951;SDS011;3001;42.622;23.194;2022-11-22T03:28:36;3.83;;;3.53;;
5951;SDS011;3001;42.622;23.194;2022-11-22T03:31:03;3.40;;;3.20;;
5951;SDS011;3001;42.622;23.194;2022-11-22T03:33:31;2.50;;;2.30;;
5951;SDS011;3001;42.622;23.194;2022-11-22T03:36:00;2.40;;;2.20;;
5951;SDS011;3001;42.622;23.194;2022-11-22T03:38:27;2.53;;;2.43;;
5951;SDS011;3001;42.622;23.194;2022-11-22T03:40:54;2.17;;;2.00;;
5951;SDS011;3001;42.622;23.194;2022-11-22T03:43:21;2.60;;;2.50;;
5951;SDS011;3001;42.622;23.194;2022-11-22T03:45:48;2.17;;;2.07;;
5951;SDS011;3001;42.622;23.194;2022-11-22T03:48:14;3.00;;;2.80;;
5951;SDS011;3001;42.622;23.194;2022-11-22T03:50:41;3.17;;;2.73;;
5951;SDS011;3001;42.622;23.194;2022-11-22T03:53:10;2.63;;;2.47;;
5951;SDS011;3001;42.622;23.194;2022-11-22T03:55:37;2.40;;;2.30;;
5951;SDS011;3001;42.622;23.194;2022-11-22T03:58:04;3.37;;;3.17;;
5951;SDS011;3001;42.622;23.194;2022-11-22T04:00:31;2.63;;;2.43;;
5951;SDS011;3001;42.622;23.194;2022-11-22T04:02:59;2.37;;;2.17;;
5951;SDS011;3001;42.622;23.194;2022-11-22T04:05:25;2.77;;;2.57;;
5951;SDS011;3001;42.622;23.194;2022-11-22T04:07:52;4.77;;;2.57;;
5951;SDS011;3001;42.622;23.194;2022-11-22T04:10:23;3.10;;;2.90;;
5951;SDS011;3001;42.622;23.194;2022-11-22T04:12:55;3.93;;;2.90;;
5951;SDS011;3001;42.622;23.194;2022-11-22T04:15:22;2.90;;;2.70;;
5951;SDS011;3001;42.622;23.194;2022-11-22T04:17:48;3.37;;;3.03;;
5951;SDS011;3001;42.622;23.194;2022-11-22T04:20:15;9.53;;;5.03;;
5951;SDS011;3001;42.622;23.194;2022-11-22T04:23:03;3.73;;;3.43;;
5951;SDS011;3001;42.622;23.194;2022-11-22T04:25:33;3.50;;;3.30;;
5951;SDS011;3001;42.622;23.194;2022-11-22T04:28:00;29.63;;;14.97;;
5951;SDS011;3001;42.622;23.194;2022-11-22T04:30:27;7.13;;;6.37;;
5951;SDS011;3001;42.622;23.194;2022-11-22T04:33:08;3.70;;;3.50;;
5951;SDS011;3001;42.622;23.194;2022-11-22T04:35:36;6.10;;;3.60;;
5951;SDS011;3001;42.622;23.194;2022-11-22T04:38:03;4.50;;;4.10;;
5951;SDS011;3001;42.622;23.194;2022-11-22T04:40:31;8.70;;;6.67;;
5951;SDS011;3001;42.622;23.194;2022-11-22T04:42:59;3.53;;;3.23;;
5951;SDS011;3001;42.622;23.194;2022-11-22T04:45:44;3.77;;;3.47;;
5951;SDS011;3001;42.622;23.194;2022-11-22T04:48:11;7.73;;;3.73;;
5951;SDS011;3001;42.622;23.194;2022-11-22T04:50:38;3.70;;;3.50;;
5951;SDS011;3001;42.622;23.194;2022-11-22T04:53:23;4.43;;;3.63;;
5951;SDS011;3001;42.622;23.194;2022-11-22T04:55:51;3.53;;;3.23;;
5951;SDS011;3001;42.622;23.194;2022-11-22T04:58:18;4.23;;;3.83;;
5951;SDS011;3001;42.622;23.194;2022-11-22T05:00:45;3.20;;;3.00;;
5951;SDS011;3001;42.622;23.194;2022-11-22T05:03:12;3.83;;;3.53;;
5951;SDS011;3001;42.622;23.194;2022-11-22T05:05:40;4.40;;;3.90;;
5951;SDS011;3001;42.622;23.194;2022-11-22T05:08:08;3.43;;;3.00;;
5951;SDS011;3001;42.622;23.194;2022-11-22T05:10:35;3.97;;;3.67;;
5951;SDS011;3001;42.622;23.194;2022-11-22T05:13:18;6.00;;;3.80;;
5951;SDS011;3001;42.622;23.194;2022-11-22T05:15:46;4.40;;;4.03;;
5951;SDS011;3001;42.622;23.194;2022-11-22T05:18:15;4.83;;;4.40;;
5951;SDS011;3001;42.622;23.194;2022-11-22T05:20:42;4.57;;;3.63;;
5951;SDS011;3001;42.622;23.194;2022-11-22T05:23:09;4.03;;;3.73;;
5951;SDS011;3001;42.622;23.194;2022-11-22T05:25:53;4.37;;;3.87;;
5951;SDS011;3001;42.622;23.194;2022-11-22T05:28:22;3.60;;;3.10;;
5951;SDS011;3001;42.622;23.194;2022-11-22T05:30:48;3.80;;;3.53;;
5951;SDS011;3001;42.622;23.194;2022-11-22T05:33:15;3.63;;;3.33;;
5951;SDS011;3001;42.622;23.194;2022-11-22T05:35:42;3.73;;;3.43;;
5951;SDS011;3001;42.622;23.194;2022-11-22T05:38:08;3.70;;;3.40;;
5951;SDS011;3001;42.622;23.194;2022-11-22T05:40:35;3.23;;;2.73;;
5951;SDS011;3001;42.622;23.194;2022-11-22T05:43:02;4.67;;;4.27;;
5951;SDS011;3001;42.622;23.194;2022-11-22T05:45:30;5.17;;;3.57;;
5951;SDS011;3001;42.622;23.194;2022-11-22T05:47:58;3.47;;;3.27;;
5951;SDS011;3001;42.622;23.194;2022-11-22T05:50:25;3.70;;;3.30;;
5951;SDS011;3001;42.622;23.194;2022-11-22T05:52:51;3.03;;;2.83;;
5951;SDS011;3001;42.622;23.194;2022-11-22T05:55:18;3.57;;;2.83;;
5951;SDS011;3001;42.622;23.194;2022-11-22T05:57:45;2.77;;;2.57;;
5951;SDS011;3001;42.622;23.194;2022-11-22T06:00:12;3.70;;;3.40;;
5951;SDS011;3001;42.622;23.194;2022-11-22T06:02:40;4.23;;;3.83;;
5951;SDS011;3001;42.622;23.194;2022-11-22T06:05:07;4.00;;;3.70;;
5951;SDS011;3001;42.622;23.194;2022-11-22T06:07:34;3.40;;;3.10;;
5951;SDS011;3001;42.622;23.194;2022-11-22T06:10:01;3.57;;;3.27;;
5951;SDS011;3001;42.622;23.194;2022-11-22T06:12:28;4.13;;;3.83;;
5951;SDS011;3001;42.622;23.194;2022-11-22T06:14:54;2.97;;;2.77;;
5951;SDS011;3001;42.622;23.194;2022-11-22T06:17:21;3.50;;;3.30;;
5951;SDS011;3001;42.622;23.194;2022-11-22T06:19:49;3.43;;;3.13;;
5951;SDS011;3001;42.622;23.194;2022-11-22T06:22:16;3.63;;;3.33;;
5951;SDS011;3001;42.622;23.194;2022-11-22T06:24:43;3.70;;;3.27;;
5951;SDS011;3001;42.622;23.194;2022-11-22T06:27:09;2.57;;;2.37;;
5951;SDS011;3001;42.622;23.194;2022-11-22T06:29:36;4.00;;;3.67;;
5951;SDS011;3001;42.622;23.194;2022-11-22T06:32:03;3.23;;;2.97;;
5951;SDS011;3001;42.622;23.194;2022-11-22T06:34:30;3.57;;;3.27;;
5951;SDS011;3001;42.622;23.194;2022-11-22T06:36:58;3.73;;;3.43;;
5951;SDS011;3001;42.622;23.194;2022-11-22T06:39:25;4.30;;;3.37;;
5951;SDS011;3001;42.622;23.194;2022-11-22T06:41:51;8.87;;;3.90;;
5951;SDS011;3001;42.622;23.194;2022-11-22T06:44:18;3.57;;;3.30;;
5951;SDS011;3001;42.622;23.194;2022-11-22T06:46:46;6.90;;;4.30;;
5951;SDS011;3001;42.622;23.194;2022-11-22T06:49:12;4.90;;;3.73;;
5951;SDS011;3001;42.622;23.194;2022-11-22T06:51:39;5.43;;;4.13;;
5951;SDS011;3001;42.622;23.194;2022-11-22T06:54:10;4.50;;;4.03;;
5951;SDS011;3001;42.622;23.194;2022-11-22T06:56:37;4.73;;;3.80;;
5951;SDS011;3001;42.622;23.194;2022-11-22T06:59:06;3.77;;;3.47;;
5951;SDS011;3001;42.622;23.194;2022-11-22T07:01:33;5.03;;;3.80;;
5951;SDS011;3001;42.622;23.194;2022-11-22T07:04:01;3.63;;;3.23;;
5951;SDS011;3001;42.622;23.194;2022-11-22T07:06:29;4.70;;;4.23;;
5951;SDS011;3001;42.622;23.194;2022-11-22T07:08:58;4.53;;;4.13;;
5951;SDS011;3001;42.622;23.194;2022-11-22T07:11:28;3.83;;;3.53;;
5951;SDS011;3001;42.622;23.194;2022-11-22T07:13:56;4.33;;;3.90;;
5951;SDS011;3001;42.622;23.194;2022-11-22T07:16:24;4.40;;;4.00;;
5951;SDS011;3001;42.622;23.194;2022-11-22T07:18:51;5.57;;;4.30;;
5951;SDS011;3001;42.622;23.194;2022-11-22T07:21:19;5.47;;;4.93;;
5951;SDS011;3001;42.622;23.194;2022-11-22T07:23:48;5.80;;;5.30;;
5951;SDS011;3001;42.622;23.194;2022-11-22T07:26:16;8.57;;;5.07;;
5951;SDS011;3001;42.622;23.194;2022-11-22T07:28:45;5.27;;;4.87;;
5951;SDS011;3001;42.622;23.194;2022-11-22T07:31:13;5.60;;;4.97;;
5951;SDS011;3001;42.622;23.194;2022-11-22T07:33:41;5.73;;;4.90;;
5951;SDS011;3001;42.622;23.194;2022-11-22T07:36:09;5.30;;;4.90;;
5951;SDS011;3001;42.622;23.194;2022-11-22T07:38:38;7.37;;;4.53;;
5951;SDS011;3001;42.622;23.194;2022-11-22T07:41:05;6.93;;;5.00;;
5951;SDS011;3001;42.622;23.194;2022-11-22T07:43:32;4.70;;;4.30;;
5951;SDS011;3001;42.622;23.194;2022-11-22T07:46:01;4.93;;;4.40;;
5951;SDS011;3001;42.622;23.194;2022-11-22T07:48:29;4.10;;;3.73;;
5951;SDS011;3001;42.622;23.194;2022-11-22T07:50:56;5.43;;;3.73;;
5951;SDS011;3001;42.622;23.194;2022-11-22T07:53:23;3.97;;;3.67;;
5951;SDS011;3001;42.622;23.194;2022-11-22T07:55:49;4.10;;;3.60;;
5951;SDS011;3001;42.622;23.194;2022-11-22T07:58:16;4.03;;;3.83;;
5951;SDS011;3001;42.622;23.194;2022-11-22T08:00:43;2.90;;;2.70;;
5951;SDS011;3001;42.622;23.194;2022-11-22T08:03:11;1.83;;;1.60;;
5951;SDS011;3001;42.622;23.194;2022-11-22T08:05:37;2.27;;;1.30;;
5951;SDS011;3001;42.622;23.194;2022-11-22T08:08:04;1.00;;;1.00;;
5951;SDS011;3001;42.622;23.194;2022-11-22T08:10:31;1.10;;;1.10;;
5951;SDS011;3001;42.622;23.194;2022-11-22T08:12:58;0.93;;;0.93;;
5951;SDS011;3001;42.622;23.194;2022-11-22T08:15:25;1.43;;;0.60;;
5951;SDS011;3001;42.622;23.194;2022-11-22T08:17:52;0.70;;;0.70;;
5951;SDS011;3001;42.622;23.194;2022-11-22T08:20:20;1.80;;;1.70;;
5951;SDS011;3001;42.622;23.194;2022-11-22T08:22:47;1.67;;;1.57;;
5951;SDS011;3001;42.622;23.194;2022-11-22T08:25:14;20.00;;;9.23;;
5951;SDS011;3001;42.622;23.194;2022-11-22T08:27:41;22.70;;;9.50;;
5951;SDS011;3001;42.622;23.194;2022-11-22T08:30:09;8.17;;;6.87;;
5951;SDS011;3001;42.622;23.194;2022-11-22T08:32:36;5.93;;;5.40;;
5951;SDS011;3001;42.622;23.194;2022-11-22T08:35:03;3.43;;;3.23;;
5951;SDS011;3001;42.622;23.194;2022-11-22T08:37:32;5.77;;;5.37;;
5951;SDS011;3001;42.622;23.194;2022-11-22T08:39:59;2.10;;;2.00;;
5951;SDS011;3001;42.622;23.194;2022-11-22T08:42:26;0.90;;;0.90;;
5951;SDS011;3001;42.622;23.194;2022-11-22T08:44:53;3.93;;;3.73;;
5951;SDS011;3001;42.622;23.194;2022-11-22T08:47:19;3.27;;;3.17;;
5951;SDS011;3001;42.622;23.194;2022-11-22T08:49:46;2.10;;;2.00;;
5951;SDS011;3001;42.622;23.194;2022-11-22T08:52:13;1.87;;;0.57;;
5951;SDS011;3001;42.622;23.194;2022-11-22T08:54:42;0.40;;;0.40;;
5951;SDS011;3001;42.622;23.194;2022-11-22T08:57:08;0.90;;;0.90;;
5951;SDS011;3001;42.622;23.194;2022-11-22T08:59:35;1.20;;;1.20;;
5951;SDS011;3001;42.622;23.194;2022-11-22T09:02:02;3.73;;;1.90;;
5951;SDS011;3001;42.622;23.194;2022-11-22T09:04:29;1.60;;;1.50;;
5951;SDS011;3001;42.622;23.194;2022-11-22T09:06:56;2.17;;;2.07;;
5951;SDS011;3001;42.622;23.194;2022-11-22T09:09:24;4.43;;;4.13;;
5951;SDS011;3001;42.622;23.194;2022-11-22T09:11:52;3.97;;;3.67;;
5951;SDS011;3001;42.622;23.194;2022-11-22T09:14:19;5.60;;;3.23;;
5951;SDS011;3001;42.622;23.194;2022-11-22T09:16:46;20.10;;;7.80;;
5951;SDS011;3001;42.622;23.194;2022-11-22T09:19:13;17.97;;;7.80;;
5951;SDS011;3001;42.622;23.194;2022-11-22T09:21:40;4.90;;;3.23;;
5951;SDS011;3001;42.622;23.194;2022-11-22T09:24:06;3.27;;;2.73;;
5951;SDS011;3001;42.622;23.194;2022-11-22T09:46:11;2.20;;;2.10;;
5951;SDS011;3001;42.622;23.194;2022-11-22T09:48:55;3.43;;;3.17;;
5951;SDS011;3001;42.622;23.194;2022-11-22T09:51:33;4.73;;;4.23;;
5951;SDS011;3001;42.622;23.194;2022-11-22T09:54:06;6.37;;;4.77;;
5951;SDS011;3001;42.622;23.194;2022-11-22T09:56:35;9.13;;;7.57;;
5951;SDS011;3001;42.622;23.194;2022-11-22T09:59:04;8.47;;;5.33;;
5951;SDS011;3001;42.622;23.194;2022-11-22T10:01:38;10.37;;;7.60;;
5951;SDS011;3001;42.622;23.194;2022-11-22T10:43:05;3.77;;;3.50;;
5951;SDS011;3001;42.622;23.194;2022-11-22T10:45:42;4.10;;;3.83;;
5951;SDS011;3001;42.622;23.194;2022-11-22T10:48:16;4.93;;;4.53;;
5951;SDS011;3001;42.622;23.194;2022-11-22T10:50:56;4.77;;;4.47;;
5951;SDS011;3001;42.622;23.194;2022-11-22T10:53:32;5.40;;;5.00;;
5951;SDS011;3001;42.622;23.194;2022-11-22T10:56:10;4.53;;;4.17;;
5951;SDS011;3001;42.622;23.194;2022-11-22T10:58:52;4.40;;;4.10;;
5951;SDS011;3001;42.622;23.194;2022-11-22T11:01:31;7.37;;;6.67;;
5951;SDS011;3001;42.622;23.194;2022-11-22T11:04:06;4.10;;;3.90;;
5951;SDS011;3001;42.622;23.194;2022-11-22T11:06:38;7.53;;;6.93;;
5951;SDS011;3001;42.622;23.194;2022-11-22T11:09:09;11.10;;;9.97;;
5951;SDS011;3001;42.622;23.194;2022-11-22T11:11:39;4.60;;;4.30;;
5951;SDS011;3001;42.622;23.194;2022-11-22T11:14:11;2.03;;;1.93;;
5951;SDS011;3001;42.622;23.194;2022-11-22T11:16:49;3.57;;;2.67;;
5951;SDS011;3001;42.622;23.194;2022-11-22T11:19:18;2.30;;;1.67;;
5951;SDS011;3001;42.622;23.194;2022-11-22T11:21:46;1.57;;;1.10;;
5951;SDS011;3001;42.622;23.194;2022-11-22T11:24:21;1.00;;;1.00;;
5951;SDS011;3001;42.622;23.194;2022-11-22T11:26:50;2.03;;;1.93;;
5951;SDS011;3001;42.622;23.194;2022-11-22T11:29:27;5.33;;;2.20;;
5951;SDS011;3001;42.622;23.194;2022-11-22T11:32:05;4.77;;;3.67;;
5951;SDS011;3001;42.622;23.194;2022-11-22T11:34:34;1.30;;;1.20;;
5951;SDS011;3001;42.622;23.194;2022-11-22T11:37:04;0.60;;;0.60;;
5951;SDS011;3001;42.622;23.194;2022-11-22T11:39:31;1.80;;;1.70;;
5951;SDS011;3001;42.622;23.194;2022-11-22T11:41:59;3.50;;;2.60;;
5951;SDS011;3001;42.622;23.194;2022-11-22T11:44:28;2.63;;;2.33;;
5951;SDS011;3001;42.622;23.194;2022-11-22T11:46:58;12.67;;;5.30;;
5951;SDS011;3001;42.622;23.194;2022-11-22T11:49:26;11.17;;;6.50;;
5951;SDS011;3001;42.622;23.194;2022-11-22T12:03:41;9.47;;;6.50;;
5951;SDS011;3001;42.622;23.194;2022-11-22T12:06:15;1.23;;;1.13;;
5951;SDS011;3001;42.622;23.194;2022-11-22T12:08:43;1.07;;;1.07;;
5951;SDS011;3001;42.622;23.194;2022-11-22T12:11:10;2.23;;;0.90;;
5951;SDS011;3001;42.622;23.194;2022-11-22T12:13:43;1.10;;;0.80;;
5951;SDS011;3001;42.622;23.194;2022-11-22T12:16:14;0.70;;;0.70;;
5951;SDS011;3001;42.622;23.194;2022-11-22T12:18:47;3.33;;;2.10;;
5951;SDS011;3001;42.622;23.194;2022-11-22T12:21:21;0.83;;;0.80;;
5951;SDS011;3001;42.622;23.194;2022-11-22T12:23:54;1.40;;;0.77;;
5951;SDS011;3001;42.622;23.194;2022-11-22T12:26:25;0.70;;;0.70;;
5951;SDS011;3001;42.622;23.194;2022-11-22T12:28:54;0.70;;;0.70;;
5951;SDS011;3001;42.622;23.194;2022-11-22T12:31:25;0.60;;;0.60;;
5951;SDS011;3001;42.622;23.194;2022-11-22T12:33:59;2.90;;;2.10;;
5951;SDS011;3001;42.622;23.194;2022-11-22T12:36:32;2.30;;;2.20;;
5951;SDS011;3001;42.622;23.194;2022-11-22T12:39:07;2.47;;;2.17;;
5951;SDS011;3001;42.622;23.194;2022-11-22T12:41:40;11.00;;;8.10;;
5951;SDS011;3001;42.622;23.194;2022-11-22T12:44:09;8.97;;;8.30;;
5951;SDS011;3001;42.622;23.194;2022-11-22T12:46:40;5.13;;;3.30;;
5951;SDS011;3001;42.622;23.194;2022-11-22T12:49:11;2.63;;;1.63;;
5951;SDS011;3001;42.622;23.194;2022-11-22T12:51:43;2.10;;;2.00;;
5951;SDS011;3001;42.622;23.194;2022-11-22T12:54:16;4.67;;;2.93;;
5951;SDS011;3001;42.622;23.194;2022-11-22T12:56:48;4.50;;;4.10;;
5951;SDS011;3001;42.622;23.194;2022-11-22T12:59:20;6.93;;;6.30;;
5951;SDS011;3001;42.622;23.194;2022-11-22T13:01:57;10.97;;;8.10;;
5951;SDS011;3001;42.622;23.194;2022-11-22T13:04:31;8.47;;;7.60;;
5951;SDS011;3001;42.622;23.194;2022-11-22T13:07:05;19.17;;;12.33;;
5951;SDS011;3001;42.622;23.194;2022-11-22T13:09:41;20.83;;;11.63;;
5951;SDS011;3001;42.622;23.194;2022-11-22T13:12:13;8.60;;;7.33;;
5951;SDS011;3001;42.622;23.194;2022-11-22T13:14:42;6.90;;;6.20;;
5951;SDS011;3001;42.622;23.194;2022-11-22T13:17:13;11.07;;;7.83;;
5951;SDS011;3001;42.622;23.194;2022-11-22T13:19:44;5.80;;;4.70;;
5951;SDS011;3001;42.622;23.194;2022-11-22T13:22:19;4.60;;;4.00;;
5951;SDS011;3001;42.622;23.194;2022-11-22T13:24:59;4.00;;;3.60;;
5951;SDS011;3001;42.622;23.194;2022-11-22T13:27:38;3.93;;;3.60;;
5951;SDS011;3001;42.622;23.194;2022-11-22T13:30:15;5.63;;;3.87;;
5951;SDS011;3001;42.622;23.194;2022-11-22T13:32:43;4.87;;;3.37;;
5951;SDS011;3001;42.622;23.194;2022-11-22T13:35:27;4.23;;;3.93;;
5951;SDS011;3001;42.622;23.194;2022-11-22T13:37:56;4.50;;;3.80;;
5951;SDS011;3001;42.622;23.194;2022-11-22T13:40:26;4.57;;;4.17;;
5951;SDS011;3001;42.622;23.194;2022-11-22T13:49:27;5.90;;;5.50;;
5951;SDS011;3001;42.622;23.194;2022-11-22T13:51:57;4.83;;;4.47;;
5951;SDS011;3001;42.622;23.194;2022-11-22T13:54:41;5.60;;;5.20;;
5951;SDS011;3001;42.622;23.194;2022-11-22T13:57:25;4.00;;;3.70;;
5951;SDS011;3001;42.622;23.194;2022-11-22T14:03:18;3.37;;;3.17;;
5951;SDS011;3001;42.622;23.194;2022-11-22T14:05:49;2.83;;;2.60;;
5951;SDS011;3001;42.622;23.194;2022-11-22T14:08:33;2.43;;;2.10;;
5951;SDS011;3001;42.622;23.194;2022-11-22T14:11:09;3.47;;;2.80;;
5951;SDS011;3001;42.622;23.194;2022-11-22T14:13:51;5.67;;;5.27;;
5951;SDS011;3001;42.622;23.194;2022-11-22T14:16:31;35.20;;;21.53;;
5951;SDS011;3001;42.622;23.194;2022-11-22T14:19:17;29.93;;;19.57;;
5951;SDS011;3001;42.622;23.194;2022-11-22T14:21:58;29.67;;;20.33;;
5951;SDS011;3001;42.622;23.194;2022-11-22T14:24:42;27.57;;;17.97;;
5951;SDS011;3001;42.622;23.194;2022-11-22T14:27:31;21.40;;;14.23;;
5951;SDS011;3001;42.622;23.194;2022-11-22T14:30:07;24.30;;;16.37;;
5951;SDS011;3001;42.622;23.194;2022-11-22T14:32:41;22.40;;;15.23;;
5951;SDS011;3001;42.622;23.194;2022-11-22T14:35:19;24.27;;;16.97;;
5951;SDS011;3001;42.622;23.194;2022-11-22T14:37:58;13.93;;;10.10;;
5951;SDS011;3001;42.622;23.194;2022-11-22T14:40:32;14.67;;;10.20;;
5951;SDS011;3001;42.622;23.194;2022-11-22T14:45:52;10.93;;;9.53;;
5951;SDS011;3001;42.622;23.194;2022-11-22T14:48:20;14.97;;;10.67;;
5951;SDS011;3001;42.622;23.194;2022-11-22T14:50:50;11.23;;;10.07;;
5951;SDS011;3001;42.622;23.194;2022-11-22T14:53:22;14.60;;;10.37;;
5951;SDS011;3001;42.622;23.194;2022-11-22T14:55:56;15.13;;;11.17;;
5951;SDS011;3001;42.622;23.194;2022-11-22T14:58:29;19.57;;;14.67;;
5951;SDS011;3001;42.622;23.194;2022-11-22T15:01:13;22.13;;;16.97;;
5951;SDS011;3001;42.622;23.194;2022-11-22T15:04:03;23.73;;;16.77;;
5951;SDS011;3001;42.622;23.194;2022-11-22T15:06:45;20.87;;;14.90;;
5951;SDS011;3001;42.622;23.194;2022-11-22T15:09:31;21.07;;;15.07;;
5951;SDS011;3001;42.622;23.194;2022-11-22T15:12:21;15.20;;;10.97;;
5951;SDS011;3001;42.622;23.194;2022-11-22T15:15:16;13.70;;;10.10;;
5951;SDS011;3001;42.622;23.194;2022-11-22T15:17:48;9.13;;;8.23;;
5951;SDS011;3001;42.622;23.194;2022-11-22T15:20:30;9.50;;;8.33;;
5951;SDS011;3001;42.622;23.194;2022-11-22T15:23:05;12.83;;;8.77;;
5951;SDS011;3001;42.622;23.194;2022-11-22T15:25:37;7.17;;;6.67;;
5951;SDS011;3001;42.622;23.194;2022-11-22T15:28:08;6.67;;;6.07;;
5951;SDS011;3001;42.622;23.194;2022-11-22T15:30:39;7.80;;;6.90;;
5951;SDS011;3001;42.622;23.194;2022-11-22T15:33:11;8.00;;;7.30;;
5951;SDS011;3001;42.622;23.194;2022-11-22T15:35:46;7.70;;;5.80;;
5951;SDS011;3001;42.622;23.194;2022-11-22T15:38:22;6.23;;;5.70;;
5951;SDS011;3001;42.622;23.194;2022-11-22T15:40:49;11.70;;;10.50;;
5951;SDS011;3001;42.622;23.194;2022-11-22T15:43:19;28.03;;;18.50;;
5951;SDS011;3001;42.622;23.194;2022-11-22T15:45:47;29.57;;;22.93;;
5951;SDS011;3001;42.622;23.194;2022-11-22T15:48:16;34.03;;;21.97;;
5951;SDS011;3001;42.622;23.194;2022-11-22T15:51:15;35.73;;;24.83;;
5951;SDS011;3001;42.622;23.194;2022-11-22T15:53:56;41.90;;;27.43;;
5951;SDS011;3001;42.622;23.194;2022-11-22T15:56:44;52.67;;;32.67;;
5951;SDS011;3001;42.622;23.194;2022-11-22T15:59:18;52.03;;;31.93;;
5951;SDS011;3001;42.622;23.194;2022-11-22T16:01:48;36.43;;;23.90;;
5951;SDS011;3001;42.622;23.194;2022-11-22T16:04:21;24.33;;;17.43;;
5951;SDS011;3001;42.622;23.194;2022-11-22T16:06:51;21.37;;;16.27;;
5951;SDS011;3001;42.622;23.194;2022-11-22T16:09:24;16.93;;;12.83;;
5951;SDS011;3001;42.622;23.194;2022-11-22T16:11:53;13.43;;;11.47;;
5951;SDS011;3001;42.622;23.194;2022-11-22T16:14:40;17.97;;;12.57;;
5951;SDS011;3001;42.622;23.194;2022-11-22T16:17:19;19.33;;;15.00;;
5951;SDS011;3001;42.622;23.194;2022-11-22T16:19:48;50.10;;;27.70;;
5951;SDS011;3001;42.622;23.194;2022-11-22T16:22:24;14.23;;;11.93;;
5951;SDS011;3001;42.622;23.194;2022-11-22T16:27:48;15.83;;;11.10;;
5951;SDS011;3001;42.622;23.194;2022-11-22T16:30:16;34.87;;;20.80;;
5951;SDS011;3001;42.622;23.194;2022-11-22T16:32:43;12.50;;;11.30;;
5951;SDS011;3001;42.622;23.194;2022-11-22T16:35:11;6.13;;;5.63;;
5951;SDS011;3001;42.622;23.194;2022-11-22T16:37:40;5.30;;;4.23;;
5951;SDS011;3001;42.622;23.194;2022-11-22T16:40:07;2.73;;;2.53;;
5951;SDS011;3001;42.622;23.194;2022-11-22T16:42:36;3.13;;;2.93;;